createdAt,value
2019-05-19T00:01:04.130Z,10.13
2019-05-19T00:03:31.172Z,10.80
2019-05-19T00:05:58.222Z,9.70
2019-05-19T00:08:25.276Z,7.90
2019-05-19T00:10:52.320Z,8.83
2019-05-19T00:13:19.370Z,9.13
2019-05-19T00:15:46.421Z,9.87
2019-05-19T00:18:13.464Z,10.40
2019-05-19T00:20:40.514Z,10.03
2019-05-19T00:23:07.568Z,9.60
2019-05-19T00:25:34.737Z,8.00
2019-05-19T00:28:01.878Z,9.37
2019-05-19T00:30:30.654Z,8.87
2019-05-19T00:32:57.711Z,9.07
2019-05-19T00:35:24.865Z,8.43
2019-05-19T00:37:51.902Z,7.57
2019-05-19T00:40:18.949Z,8.87
2019-05-19T00:42:46.015Z,10.07
2019-05-19T00:45:13.048Z,9.23
2019-05-19T00:47:40.096Z,9.73
2019-05-19T00:50:26.540Z,9.70
2019-05-19T00:53:13.409Z,8.30
2019-05-19T00:55:40.468Z,9.23
2019-05-19T00:58:07.510Z,9.23
2019-05-19T01:00:34.526Z,8.50
2019-05-19T01:03:01.611Z,8.47
2019-05-19T01:05:28.610Z,8.37
2019-05-19T01:07:55.612Z,8.63
2019-05-19T01:10:22.653Z,7.80
2019-05-19T01:12:49.706Z,7.93
2019-05-19T01:15:16.753Z,8.20
2019-05-19T01:17:43.839Z,7.77
2019-05-19T01:20:10.947Z,7.90
2019-05-19T01:22:37.998Z,8.17
2019-05-19T01:25:05.055Z,7.17
2019-05-19T01:27:32.092Z,7.90
2019-05-19T01:29:59.141Z,8.07
2019-05-19T01:32:26.195Z,7.47
2019-05-19T01:34:53.239Z,6.33
2019-05-19T01:37:20.296Z,6.67
2019-05-19T01:39:47.343Z,5.80
2019-05-19T01:42:14.384Z,5.93
2019-05-19T01:44:41.432Z,5.63
2019-05-19T01:47:08.487Z,5.43
2019-05-19T01:49:36.965Z,5.67
2019-05-19T01:52:04.017Z,5.77
2019-05-19T01:54:33.288Z,5.53
2019-05-19T01:57:00.364Z,5.73
2019-05-19T01:59:27.411Z,5.20
2019-05-19T02:01:54.514Z,5.27
2019-05-19T02:04:21.507Z,5.67
2019-05-19T02:06:48.558Z,5.27
2019-05-19T02:09:15.616Z,4.90
2019-05-19T02:11:42.664Z,5.70
2019-05-19T02:14:09.736Z,4.93
2019-05-19T02:16:36.697Z,5.90
2019-05-19T02:19:03.806Z,5.80
2019-05-19T02:21:30.853Z,5.30
2019-05-19T02:23:57.903Z,5.60
2019-05-19T02:26:24.946Z,4.90
2019-05-19T02:28:51.962Z,4.73
2019-05-19T02:31:18.945Z,4.77
2019-05-19T02:33:45.988Z,5.70
2019-05-19T02:36:13.046Z,5.17
2019-05-19T02:41:37.759Z,4.87
2019-05-19T02:44:04.802Z,4.97
2019-05-19T02:46:31.848Z,4.60
2019-05-19T02:49:01.055Z,5.00
2019-05-19T02:51:28.206Z,4.73
2019-05-19T02:53:55.248Z,4.53
2019-05-19T02:56:22.298Z,4.70
2019-05-19T02:58:52.521Z,4.57
2019-05-19T03:01:19.672Z,4.93
2019-05-19T03:04:03.921Z,4.90
2019-05-19T03:06:31.943Z,4.70
2019-05-19T03:08:59.045Z,4.77
2019-05-19T03:11:26.093Z,4.60
2019-05-19T03:13:53.350Z,4.63
2019-05-19T03:16:20.347Z,4.53
2019-05-19T03:18:47.451Z,4.70
2019-05-19T03:21:14.491Z,4.60
2019-05-19T03:23:41.906Z,4.47
2019-05-19T03:26:08.998Z,4.53
2019-05-19T03:28:36.053Z,4.50
2019-05-19T03:31:09.473Z,4.83
2019-05-19T03:33:39.164Z,4.30
2019-05-19T03:36:06.204Z,4.20
2019-05-19T03:38:33.259Z,4.40
2019-05-19T03:41:00.308Z,5.03
2019-05-19T03:43:27.342Z,4.97
2019-05-19T03:45:54.374Z,5.50
2019-05-19T03:48:21.447Z,5.03
2019-05-19T03:50:48.501Z,4.80
2019-05-19T03:53:15.857Z,4.97
2019-05-19T03:55:42.899Z,4.90
2019-05-19T03:58:10.311Z,4.80
2019-05-19T04:00:37.431Z,4.73
2019-05-19T04:03:04.462Z,4.37
2019-05-19T04:05:31.504Z,4.27
2019-05-19T04:07:58.551Z,4.50
2019-05-19T04:10:25.606Z,4.40
2019-05-19T04:12:52.652Z,4.10
2019-05-19T04:15:19.702Z,4.03
2019-05-19T04:17:46.752Z,4.40
2019-05-19T04:20:13.796Z,4.30
2019-05-19T04:22:40.854Z,4.00
2019-05-19T04:25:07.898Z,4.73
2019-05-19T04:27:35.050Z,3.97
2019-05-19T04:30:02.096Z,3.60
2019-05-19T04:32:43.342Z,4.03
2019-05-19T04:35:12.370Z,3.60
2019-05-19T04:37:41.055Z,4.60
2019-05-19T04:40:08.112Z,4.93
2019-05-19T04:42:35.156Z,4.57
2019-05-19T04:45:02.771Z,3.60
2019-05-19T04:47:29.773Z,3.60
2019-05-19T04:49:56.777Z,7.40
2019-05-19T04:52:24.167Z,3.53
2019-05-19T04:54:51.222Z,5.47
2019-05-19T04:57:18.264Z,4.73
2019-05-19T04:59:45.522Z,4.00
2019-05-19T05:02:12.678Z,4.40
2019-05-19T05:04:39.690Z,4.27
2019-05-19T05:07:06.791Z,5.37
2019-05-19T05:09:33.887Z,4.30
2019-05-19T05:12:00.991Z,3.60
2019-05-19T05:14:28.136Z,3.67
2019-05-19T05:16:55.178Z,3.43
2019-05-19T05:19:22.233Z,4.70
2019-05-19T05:21:49.275Z,3.00
2019-05-19T05:24:16.323Z,4.73
2019-05-19T05:26:43.377Z,19.70
2019-05-19T05:29:10.420Z,8.93
2019-05-19T05:31:37.469Z,4.33
2019-05-19T05:34:04.475Z,4.60
2019-05-19T05:36:31.462Z,4.40
2019-05-19T05:38:58.517Z,6.53
2019-05-19T05:41:25.460Z,7.53
2019-05-19T05:43:52.512Z,4.50
2019-05-19T05:46:19.556Z,6.53
2019-05-19T05:48:47.122Z,5.43
2019-05-19T05:51:14.168Z,5.40
2019-05-19T05:53:41.166Z,5.70
2019-05-19T05:56:08.269Z,6.50
2019-05-19T05:58:35.261Z,5.83
2019-05-19T06:01:02.360Z,7.67
2019-05-19T06:03:29.412Z,5.33
2019-05-19T06:05:56.455Z,7.07
2019-05-19T06:08:23.812Z,5.20
2019-05-19T06:10:50.863Z,4.37
2019-05-19T06:13:17.908Z,4.53
2019-05-19T06:15:44.961Z,4.60
2019-05-19T06:18:12.010Z,4.83
2019-05-19T06:20:39.054Z,5.20
2019-05-19T06:23:06.104Z,4.83
2019-05-19T06:25:33.259Z,4.80
2019-05-19T06:28:00.815Z,4.93
2019-05-19T06:30:27.867Z,5.20
2019-05-19T06:32:54.917Z,5.17
2019-05-19T06:35:21.959Z,5.50
2019-05-19T06:38:06.756Z,5.27
2019-05-19T06:40:34.189Z,5.93
2019-05-19T06:43:01.544Z,15.57
2019-05-19T06:45:30.142Z,8.73
2019-05-19T06:47:57.184Z,12.80
2019-05-19T06:50:24.529Z,6.57
2019-05-19T06:52:51.578Z,5.30
2019-05-19T06:55:18.630Z,6.27
2019-05-19T06:57:45.672Z,6.03
2019-05-19T07:00:12.721Z,6.30
2019-05-19T07:02:39.776Z,6.23
2019-05-19T07:05:07.852Z,4.43
2019-05-19T07:07:34.892Z,6.33
2019-05-19T07:10:04.300Z,5.63
2019-05-19T07:12:33.598Z,4.90
2019-05-19T07:15:00.952Z,5.10
2019-05-19T07:17:28.009Z,4.87
2019-05-19T07:19:55.049Z,4.47
2019-05-19T07:22:22.115Z,5.00
2019-05-19T07:24:49.153Z,5.10
2019-05-19T07:27:16.194Z,5.03
2019-05-19T07:29:43.248Z,5.23
2019-05-19T07:32:10.297Z,5.83
2019-05-19T07:34:37.344Z,5.60
2019-05-19T07:37:04.389Z,5.20
2019-05-19T07:39:31.540Z,5.77
2019-05-19T07:41:58.539Z,5.50
2019-05-19T07:44:25.637Z,5.43
2019-05-19T07:46:52.685Z,6.03
2019-05-19T07:49:19.742Z,6.43
2019-05-19T07:51:46.782Z,6.20
2019-05-19T07:54:13.933Z,5.80
2019-05-19T07:56:40.981Z,6.17
2019-05-19T07:59:08.162Z,6.13
2019-05-19T08:01:35.190Z,6.53
2019-05-19T08:04:02.537Z,5.80
2019-05-19T08:06:31.840Z,6.57
2019-05-19T08:08:58.887Z,6.90
2019-05-19T08:11:25.940Z,6.43
2019-05-19T08:14:06.166Z,6.20
2019-05-19T08:16:35.085Z,6.60
2019-05-19T08:19:02.140Z,6.43
2019-05-19T08:21:29.184Z,6.13
2019-05-19T08:24:00.870Z,6.60
2019-05-19T08:26:24.214Z,6.30
2019-05-19T08:28:51.250Z,6.33
2019-05-19T08:31:19.373Z,6.47
2019-05-19T08:33:46.382Z,6.10
2019-05-19T08:36:13.425Z,6.10
2019-05-19T08:38:40.943Z,7.20
2019-05-19T08:41:09.321Z,7.07
2019-05-19T08:43:36.366Z,8.20
2019-05-19T08:46:03.456Z,7.00
2019-05-19T08:48:31.330Z,7.30
2019-05-19T08:50:58.372Z,7.13
2019-05-19T08:53:25.384Z,7.03
2019-05-19T08:55:52.440Z,9.37
2019-05-19T08:58:20.096Z,7.07
2019-05-19T09:00:47.148Z,7.40
2019-05-19T09:03:14.196Z,9.83
2019-05-19T09:05:41.240Z,8.63
2019-05-19T09:08:08.448Z,8.23
2019-05-19T09:10:35.449Z,8.87
2019-05-19T09:13:02.501Z,8.90
2019-05-19T09:15:29.538Z,8.27
2019-05-19T09:17:56.584Z,7.17
2019-05-19T09:20:23.640Z,8.63
2019-05-19T09:22:50.917Z,8.87
2019-05-19T09:25:18.039Z,10.87
2019-05-19T09:27:45.092Z,7.60
2019-05-19T09:30:12.135Z,9.57
2019-05-19T09:32:39.184Z,8.47
2019-05-19T09:35:06.242Z,8.07
2019-05-19T09:37:33.179Z,12.63
2019-05-19T09:40:00.239Z,13.53
2019-05-19T09:42:27.229Z,9.97
2019-05-19T09:44:54.227Z,7.27
2019-05-19T09:47:23.319Z,7.37
2019-05-19T09:49:50.376Z,8.00
2019-05-19T09:52:35.303Z,7.53
2019-05-19T09:55:02.385Z,7.32
2019-05-19T09:57:29.435Z,6.47
2019-05-19T09:59:57.610Z,7.28
2019-05-19T10:02:39.436Z,7.78
2019-05-19T10:05:06.559Z,7.22
2019-05-19T10:07:33.608Z,7.22
2019-05-19T10:10:00.723Z,6.85
2019-05-19T10:12:27.761Z,7.18
2019-05-19T10:14:55.468Z,6.75
2019-05-19T10:17:22.520Z,6.90
2019-05-19T10:19:49.563Z,7.05
2019-05-19T10:22:16.611Z,6.85
2019-05-19T10:24:59.194Z,6.72
2019-05-19T10:27:10.707Z,6.62
2019-05-19T10:29:37.757Z,5.97
2019-05-19T10:32:06.445Z,6.80
2019-05-19T10:34:33.454Z,6.40
2019-05-19T10:37:02.187Z,6.85
2019-05-19T10:39:29.229Z,6.47
2019-05-19T10:41:56.323Z,6.47
2019-05-19T10:44:23.431Z,6.35
2019-05-19T10:46:50.483Z,6.00
2019-05-19T10:49:17.528Z,6.05
2019-05-19T10:51:44.480Z,5.87
2019-05-19T10:54:11.519Z,6.03
2019-05-19T10:56:38.471Z,6.35
2019-05-19T10:59:05.514Z,5.85
2019-05-19T11:01:33.282Z,6.45
2019-05-19T11:04:00.544Z,5.75
2019-05-19T11:06:27.734Z,6.80
2019-05-19T11:08:54.733Z,7.95
2019-05-19T11:11:21.684Z,7.93
2019-05-19T11:13:48.627Z,7.65
2019-05-19T11:16:15.681Z,7.40
2019-05-19T11:18:42.724Z,7.62
2019-05-19T11:21:09.726Z,7.28
2019-05-19T11:23:36.718Z,7.32
2019-05-19T11:26:03.766Z,7.85
2019-05-19T11:28:30.762Z,8.68
2019-05-19T11:30:58.589Z,8.80
2019-05-19T11:33:25.630Z,8.32
2019-05-19T11:35:52.678Z,7.72
2019-05-19T11:38:20.805Z,6.30
2019-05-19T11:40:47.804Z,6.72
2019-05-19T11:43:14.849Z,6.87
2019-05-19T11:45:42.013Z,6.87
2019-05-19T11:48:10.747Z,6.70
2019-05-19T11:50:41.872Z,7.12
2019-05-19T11:53:04.963Z,7.90
2019-05-19T11:55:32.303Z,8.25
2019-05-19T11:57:59.401Z,7.93
2019-05-19T12:00:27.705Z,7.85
2019-05-19T12:02:54.718Z,6.78
2019-05-19T12:05:24.144Z,4.82
2019-05-19T12:07:51.381Z,4.03
2019-05-19T12:10:20.439Z,3.95
2019-05-19T12:12:47.932Z,3.42
2019-05-19T12:15:14.990Z,3.40
2019-05-19T12:17:42.030Z,3.25
2019-05-19T12:20:09.437Z,3.20
2019-05-19T12:22:36.536Z,3.40
2019-05-19T12:25:03.795Z,4.80
2019-05-19T12:27:32.459Z,6.80
2019-05-19T12:29:59.524Z,6.60
2019-05-19T12:32:26.521Z,6.62
2019-05-19T12:34:53.933Z,6.28
2019-05-19T12:37:23.481Z,5.55
2019-05-19T12:39:51.506Z,5.30
2019-05-19T12:42:18.562Z,4.68
2019-05-19T12:44:51.467Z,4.00
2019-05-19T12:47:18.593Z,3.90
2019-05-19T12:49:45.648Z,3.92
2019-05-19T12:52:12.948Z,3.90
2019-05-19T12:54:40.902Z,3.70
2019-05-19T12:57:08.016Z,3.60
2019-05-19T12:59:37.176Z,3.12
2019-05-19T13:02:10.341Z,3.20
2019-05-19T13:04:37.560Z,3.20
2019-05-19T13:07:04.609Z,3.60
2019-05-19T13:09:31.666Z,3.20
2019-05-19T13:11:58.705Z,3.87
2019-05-19T13:14:34.662Z,4.90
2019-05-19T13:17:01.716Z,4.37
2019-05-19T13:19:28.772Z,4.40
2019-05-19T13:21:56.114Z,4.22
2019-05-19T13:24:25.319Z,3.90
2019-05-19T13:26:56.636Z,3.67
2019-05-19T13:29:20.947Z,3.90
2019-05-19T13:31:48.200Z,3.53
2019-05-19T13:34:15.249Z,3.47
2019-05-19T13:36:42.312Z,2.65
2019-05-19T13:39:09.347Z,2.83
2019-05-19T13:41:36.369Z,2.90
2019-05-19T13:44:03.448Z,2.95
2019-05-19T13:46:30.494Z,6.03
2019-05-19T13:48:57.541Z,4.90
2019-05-19T13:51:26.845Z,4.30
2019-05-19T13:53:53.844Z,3.75
2019-05-19T13:56:22.783Z,4.25
2019-05-19T13:58:49.810Z,4.45
2019-05-19T14:01:28.054Z,3.87
2019-05-19T14:03:43.987Z,4.45
2019-05-19T14:06:11.695Z,4.28
2019-05-19T14:08:42.947Z,4.22
2019-05-19T14:11:11.301Z,4.18
2019-05-19T14:13:38.371Z,4.47
2019-05-19T14:16:06.516Z,4.70
2019-05-19T14:18:33.930Z,4.30
2019-05-19T14:21:01.052Z,4.05
2019-05-19T14:23:28.101Z,3.83
2019-05-19T14:25:56.789Z,4.10
2019-05-19T14:28:23.842Z,3.58
2019-05-19T14:30:50.887Z,4.35
2019-05-19T14:33:17.934Z,4.65
2019-05-19T14:35:45.295Z,4.30
2019-05-19T14:38:12.853Z,3.85
2019-05-19T14:40:40.006Z,4.32
2019-05-19T14:43:07.056Z,3.80
2019-05-19T14:45:35.745Z,4.30
2019-05-19T14:48:03.478Z,4.78
2019-05-19T14:50:30.558Z,4.80
2019-05-19T14:52:57.604Z,4.90
2019-05-19T14:55:25.576Z,4.53
2019-05-19T14:57:52.620Z,5.03
2019-05-19T15:00:20.692Z,4.65
2019-05-19T15:02:47.842Z,4.80
2019-05-19T15:05:14.894Z,5.00
2019-05-19T15:07:41.947Z,5.40
2019-05-19T15:10:08.948Z,4.85
2019-05-19T15:12:35.992Z,5.25
2019-05-19T15:15:05.134Z,4.87
2019-05-19T15:17:32.185Z,5.03
2019-05-19T15:19:59.236Z,4.45
2019-05-19T15:22:28.123Z,5.15
2019-05-19T15:24:55.176Z,4.30
2019-05-19T15:27:22.225Z,4.47
2019-05-19T15:29:49.475Z,4.80
2019-05-19T15:32:16.528Z,4.85
2019-05-19T15:34:43.570Z,4.53
2019-05-19T15:37:10.619Z,4.62
2019-05-19T15:39:37.672Z,4.32
2019-05-19T15:42:04.795Z,4.40
2019-05-19T15:44:31.868Z,4.53
2019-05-19T15:46:58.920Z,3.85
2019-05-19T15:49:25.934Z,4.18
2019-05-19T15:52:01.619Z,4.12
2019-05-19T15:54:20.238Z,4.25
2019-05-19T15:56:47.315Z,4.07
2019-05-19T15:59:14.365Z,3.42
2019-05-19T16:01:50.827Z,3.20
2019-05-19T16:04:17.881Z,2.25
2019-05-19T16:06:46.366Z,1.90
2019-05-19T16:09:13.413Z,2.28
2019-05-19T16:11:40.467Z,2.00
2019-05-19T16:14:07.513Z,2.12
2019-05-19T16:16:34.561Z,2.12
2019-05-19T16:19:01.613Z,2.45
2019-05-19T16:21:28.655Z,2.25
2019-05-19T16:23:55.704Z,2.97
2019-05-19T16:26:22.757Z,7.37
2019-05-19T16:28:49.799Z,3.20
2019-05-19T16:31:16.850Z,2.65
2019-05-19T16:33:43.869Z,2.55
2019-05-19T16:36:10.948Z,3.08
2019-05-19T16:38:37.999Z,3.85
2019-05-19T16:41:05.053Z,5.05
2019-05-19T16:43:32.092Z,3.90
2019-05-19T16:45:59.143Z,4.62
2019-05-19T16:48:26.199Z,4.93
2019-05-19T16:50:53.229Z,4.90
2019-05-19T16:53:20.243Z,4.32
2019-05-19T16:55:47.342Z,4.70
2019-05-19T16:58:21.196Z,4.35
2019-05-19T17:00:41.496Z,4.40
2019-05-19T17:03:08.592Z,4.50
2019-05-19T17:05:35.655Z,4.75
2019-05-19T17:08:02.681Z,4.80
2019-05-19T17:10:29.731Z,6.05
2019-05-19T17:12:56.750Z,6.20
2019-05-19T17:15:24.357Z,6.55
2019-05-19T17:17:51.491Z,6.30
2019-05-19T17:20:18.642Z,7.22
2019-05-19T17:22:47.738Z,7.90
2019-05-19T17:25:14.889Z,6.50
2019-05-19T17:27:43.577Z,5.75
2019-05-19T17:30:12.280Z,5.47
2019-05-19T17:32:39.313Z,4.65
2019-05-19T17:35:06.878Z,4.90
2019-05-19T17:37:33.926Z,4.62
2019-05-19T17:40:00.977Z,4.22
2019-05-19T17:42:28.639Z,4.15
2019-05-19T17:44:55.685Z,4.30
2019-05-19T17:47:22.758Z,4.22
2019-05-19T17:49:49.779Z,4.25
2019-05-19T17:52:16.828Z,4.55
2019-05-19T17:54:44.287Z,4.50
2019-05-19T17:57:11.406Z,4.12
2019-05-19T17:59:38.493Z,4.25
2019-05-19T18:02:06.721Z,4.10
2019-05-19T18:04:38.966Z,4.10
2019-05-19T18:07:06.092Z,4.35
2019-05-19T18:09:33.132Z,4.55
2019-05-19T18:12:00.183Z,4.22
2019-05-19T18:14:27.233Z,4.40
2019-05-19T18:16:54.277Z,4.00
2019-05-19T18:19:21.737Z,4.20
2019-05-19T18:21:48.784Z,4.10
2019-05-19T18:24:20.415Z,4.28
2019-05-19T18:26:47.508Z,4.32
2019-05-19T18:29:14.647Z,4.00
2019-05-19T18:31:41.691Z,4.70
2019-05-19T18:34:08.745Z,4.50
2019-05-19T18:36:35.796Z,3.95
2019-05-19T18:39:02.937Z,4.60
2019-05-19T18:41:29.968Z,4.55
2019-05-19T18:43:57.041Z,4.37
2019-05-19T18:46:25.903Z,4.65
2019-05-19T18:48:52.980Z,4.62
2019-05-19T18:51:22.905Z,3.85
2019-05-19T18:53:49.946Z,4.62
2019-05-19T18:56:16.916Z,4.90
2019-05-19T18:58:43.941Z,5.07
2019-05-19T19:01:10.958Z,6.30
2019-05-19T19:03:38.032Z,5.60
2019-05-19T19:06:05.184Z,4.93
2019-05-19T19:08:32.207Z,11.10
2019-05-19T19:10:59.296Z,12.05
2019-05-19T19:13:26.331Z,9.95
2019-05-19T19:15:53.353Z,10.48
2019-05-19T19:18:20.426Z,9.23
2019-05-19T19:20:48.318Z,13.52
2019-05-19T19:23:15.454Z,13.77
2019-05-19T19:25:42.494Z,11.88
2019-05-19T19:28:10.775Z,8.82
2019-05-19T19:30:40.380Z,5.80
2019-05-19T19:33:07.608Z,5.30
2019-05-19T19:35:39.312Z,4.82
2019-05-19T19:38:03.064Z,5.62
2019-05-19T19:40:30.212Z,5.85
2019-05-19T19:43:00.366Z,6.78
2019-05-19T19:45:27.896Z,7.75
2019-05-19T19:47:54.917Z,8.23
2019-05-19T19:50:23.943Z,8.40
2019-05-19T19:52:51.303Z,8.18
2019-05-19T19:55:33.952Z,7.85
2019-05-19T19:58:01.263Z,8.20
2019-05-19T20:00:40.396Z,8.18
2019-05-19T20:03:07.550Z,8.07
2019-05-19T20:05:34.594Z,7.95
2019-05-19T20:08:01.648Z,8.20
2019-05-19T20:10:28.695Z,7.60
2019-05-19T20:12:55.740Z,7.62
2019-05-19T20:15:22.761Z,7.15
2019-05-19T20:17:49.838Z,6.68
2019-05-19T20:20:16.889Z,7.62
2019-05-19T20:22:51.062Z,7.55
2019-05-19T20:25:20.885Z,8.52
2019-05-19T20:27:51.238Z,8.38
2019-05-19T20:30:34.609Z,8.32
2019-05-19T20:32:50.978Z,8.48
2019-05-19T20:35:18.000Z,11.00
2019-05-19T20:37:45.174Z,12.05
2019-05-19T20:40:14.200Z,12.32
2019-05-19T20:42:41.444Z,13.45
2019-05-19T20:45:08.471Z,18.55
2019-05-19T20:47:35.596Z,26.83
2019-05-19T20:50:02.770Z,29.92
2019-05-19T20:52:29.817Z,31.67
2019-05-19T20:54:56.872Z,32.33
2019-05-19T20:57:23.915Z,36.73
2019-05-19T20:59:50.946Z,36.03
2019-05-19T21:02:18.832Z,37.23
2019-05-19T21:04:47.181Z,40.37
2019-05-19T21:07:14.977Z,38.37
2019-05-19T21:09:42.033Z,36.60
2019-05-19T21:12:09.078Z,33.13
2019-05-19T21:14:36.124Z,32.73
2019-05-19T21:17:04.173Z,32.87
2019-05-19T21:19:31.217Z,29.80
2019-05-19T21:21:58.299Z,31.57
2019-05-19T21:24:28.180Z,30.67
2019-05-19T21:26:55.256Z,29.17
2019-05-19T21:29:22.305Z,24.70
2019-05-19T21:31:49.325Z,21.97
2019-05-19T21:34:16.382Z,21.00
2019-05-19T21:36:43.451Z,20.57
2019-05-19T21:39:10.507Z,15.90
2019-05-19T21:41:37.657Z,9.10
2019-05-19T21:44:04.808Z,9.37
2019-05-19T21:46:31.850Z,7.63
2019-05-19T21:48:59.002Z,6.40
2019-05-19T21:51:26.015Z,4.00
2019-05-19T21:53:53.104Z,3.97
2019-05-19T21:56:20.151Z,2.97
2019-05-19T21:58:47.196Z,3.43
2019-05-19T22:01:22.638Z,3.03
2019-05-19T22:03:41.603Z,2.90
2019-05-19T22:06:08.752Z,3.47
2019-05-19T22:08:35.800Z,2.90
2019-05-19T22:11:05.003Z,3.10
2019-05-19T22:13:33.481Z,3.17
2019-05-19T22:16:12.551Z,3.57
2019-05-19T22:18:27.683Z,3.60
2019-05-19T22:20:57.189Z,3.70
2019-05-19T22:23:24.235Z,4.23
2019-05-19T22:25:51.234Z,4.70
2019-05-19T22:28:26.261Z,0.83
2019-05-19T22:30:53.776Z,1.73
2019-05-19T22:33:20.828Z,0.83
2019-05-19T22:35:48.800Z,2.00
2019-05-19T22:38:16.049Z,2.30
2019-05-19T22:40:42.997Z,2.45
2019-05-19T22:43:10.045Z,2.70
2019-05-19T22:45:37.605Z,2.90
2019-05-19T22:48:09.162Z,2.60
2019-05-19T22:50:36.208Z,2.20
2019-05-19T22:53:05.712Z,2.28
2019-05-19T22:55:34.196Z,2.20
2019-05-19T22:58:01.245Z,2.17
2019-05-19T23:00:28.299Z,2.08
2019-05-19T23:02:55.296Z,2.40
2019-05-19T23:05:22.293Z,2.10
2019-05-19T23:07:49.336Z,2.70
2019-05-19T23:10:16.385Z,2.65
2019-05-19T23:12:43.439Z,2.70
2019-05-19T23:15:12.326Z,2.65
2019-05-19T23:17:39.475Z,2.80
2019-05-19T23:20:06.477Z,2.97
2019-05-19T23:22:33.471Z,3.53
2019-05-19T23:25:00.523Z,3.53
2019-05-19T23:27:27.612Z,3.53
2019-05-19T23:29:54.623Z,3.85
2019-05-19T23:32:21.668Z,3.90
2019-05-19T23:34:48.823Z,4.57
2019-05-19T23:37:15.871Z,5.40
2019-05-19T23:39:42.914Z,4.78
2019-05-19T23:42:09.965Z,5.15
2019-05-19T23:44:37.019Z,6.40
2019-05-19T23:47:04.059Z,6.80
2019-05-19T23:49:31.114Z,6.95
2019-05-19T23:51:58.163Z,8.82
2019-05-19T23:54:25.206Z,8.55
2019-05-19T23:56:53.892Z,8.77
2019-05-19T23:59:20.941Z,9.13
